Time;durP1;ratioP1;P1;durP2;ratioP2;P2;SDS_P1;SDS_P2;PMS_P1;PMS_P2;Temp;Humidity;BMP_temperature;BMP_pressure;BME280_temperature;BME280_humidity;BME280_pressure;Samples;Min_cycle;Max_cycle;Signal;HPM_P1;HPM_P2
2023/12/16 00:02:07;;;;;;;2.03;0.60;;;30.80;54.90;;;;;;5070516;28;20192;-78
2023/12/16 00:04:40;;;;;;;4.47;0.90;;;31.00;54.30;;;;;;5051931;28;20295;-77
2023/12/16 00:07:13;;;;;;;2.17;1.00;;;31.10;53.10;;;;;;5056403;28;20223;-78
2023/12/16 00:09:43;;;;;;;1.88;0.80;;;31.40;53.20;;;;;;5051828;28;20220;-79
2023/12/16 00:12:14;;;;;;;2.25;0.80;;;31.50;52.80;;;;;;5068927;28;20200;-79
2023/12/16 00:14:45;;;;;;;6.60;1.08;;;31.60;51.60;;;;;;5071117;28;20298;-78
2023/12/16 00:17:16;;;;;;;4.15;1.00;;;31.60;51.20;;;;;;5061853;28;20228;-80
2023/12/16 00:19:47;;;;;;;1.20;0.77;;;31.70;50.60;;;;;;5064224;28;20669;-78
2023/12/16 00:22:19;;;;;;;1.45;0.60;;;31.60;47.20;;;;;;5069118;28;20619;-78
2023/12/16 00:24:50;;;;;;;1.83;0.60;;;31.60;44.20;;;;;;5069445;28;20291;-78
2023/12/16 00:27:21;;;;;;;2.97;0.70;;;31.70;42.40;;;;;;5070566;28;20204;-79
2023/12/16 00:29:52;;;;;;;0.80;0.52;;;31.60;41.10;;;;;;5077426;28;20223;-78
2023/12/16 00:32:23;;;;;;;2.42;0.73;;;31.70;39.70;;;;;;5073411;28;20206;-80
2023/12/16 00:34:53;;;;;;;2.10;0.60;;;31.60;38.20;;;;;;5070107;28;20204;-79
2023/12/16 00:37:27;;;;;;;0.98;0.50;;;31.70;39.20;;;;;;5070951;28;20200;-79
2023/12/16 00:39:58;;;;;;;5.13;0.70;;;31.90;39.00;;;;;;5069720;28;20204;-79
2023/12/16 00:42:28;;;;;;;0.85;0.50;;;32.00;36.80;;;;;;5050848;28;20616;-79
2023/12/16 00:45:00;;;;;;;2.38;0.50;;;32.00;37.00;;;;;;5053836;28;20199;-79
2023/12/16 00:47:31;;;;;;;1.40;0.90;;;32.10;35.70;;;;;;5071012;28;20200;-79
2023/12/16 00:50:02;;;;;;;1.38;0.70;;;32.20;35.40;;;;;;5070546;28;20223;-79
2023/12/16 00:52:34;;;;;;;0.88;0.50;;;32.30;35.00;;;;;;5069754;28;20199;-78
2023/12/16 00:55:05;;;;;;;1.55;0.52;;;32.40;33.40;;;;;;5069772;28;20199;-79
2023/12/16 00:57:37;;;;;;;2.05;0.50;;;32.50;31.90;;;;;;5092220;28;20243;-77
2023/12/16 01:00:09;;;;;;;1.85;0.40;;;32.60;32.00;;;;;;5092353;28;20231;-77
2023/12/16 01:02:40;;;;;;;1.77;0.50;;;32.70;30.90;;;;;;5078755;28;20306;-78
2023/12/16 01:05:11;;;;;;;0.32;0.30;;;32.80;31.00;;;;;;5065610;28;20276;-77
2023/12/16 01:07:44;;;;;;;2.40;0.60;;;32.90;31.10;;;;;;5070925;28;20200;-78
2023/12/16 01:10:15;;;;;;;1.23;0.60;;;33.00;31.50;;;;;;5067850;28;20226;-78
2023/12/16 01:12:45;;;;;;;2.53;0.40;;;33.10;31.40;;;;;;5070849;28;20203;-79
2023/12/16 01:15:18;;;;;;;1.02;0.60;;;33.00;31.70;;;;;;5069618;28;20202;-78
2023/12/16 01:17:49;;;;;;;0.40;0.40;;;33.10;32.20;;;;;;5063610;28;20236;-78
2023/12/16 01:20:19;;;;;;;0.90;0.50;;;33.20;31.80;;;;;;5065270;28;20211;-79
2023/12/16 01:22:52;;;;;;;0.60;0.40;;;33.30;32.20;;;;;;5070976;28;20282;-78
2023/12/16 01:25:23;;;;;;;1.65;0.50;;;33.40;32.00;;;;;;5072809;28;20203;-79
2023/12/16 01:27:54;;;;;;;1.33;0.52;;;33.60;31.00;;;;;;5072195;28;20272;-80
2023/12/16 01:30:25;;;;;;;0.68;0.50;;;33.60;31.10;;;;;;5064645;28;20681;-79
2023/12/16 01:32:56;;;;;;;0.52;0.50;;;33.60;31.20;;;;;;5063382;28;20197;-79
2023/12/16 01:35:27;;;;;;;0.88;0.45;;;33.60;31.30;;;;;;5054669;28;20219;-79
2023/12/16 01:37:59;;;;;;;3.08;0.47;;;33.70;31.90;;;;;;5073130;28;20200;-79
2023/12/16 01:40:30;;;;;;;1.52;0.60;;;33.70;29.60;;;;;;5062870;28;20279;-79
2023/12/16 01:43:05;;;;;;;2.97;0.57;;;33.60;29.30;;;;;;5074165;28;20196;-79
2023/12/16 01:45:37;;;;;;;2.38;0.40;;;33.80;28.00;;;;;;5083525;28;20205;-78
2023/12/16 01:48:09;;;;;;;0.95;0.43;;;33.90;29.50;;;;;;5080112;28;20582;-79
2023/12/16 01:50:40;;;;;;;1.58;0.35;;;34.00;28.60;;;;;;5073312;28;20808;-80
2023/12/16 01:53:13;;;;;;;0.82;0.38;;;34.00;28.00;;;;;;5074415;28;20207;-79
2023/12/16 01:55:44;;;;;;;0.32;0.30;;;34.00;28.80;;;;;;5071705;28;20303;-79
2023/12/16 01:58:15;;;;;;;0.75;0.50;;;34.00;28.60;;;;;;5073801;28;20200;-78
2023/12/16 02:00:47;;;;;;;1.05;0.50;;;34.00;28.50;;;;;;5067506;28;20220;-79
2023/12/16 02:03:20;;;;;;;1.00;0.30;;;34.00;28.20;;;;;;5057766;28;20282;-80
2023/12/16 02:05:51;;;;;;;2.58;0.47;;;34.00;28.30;;;;;;5071624;28;20275;-81
2023/12/16 02:08:24;;;;;;;0.30;0.30;;;34.10;28.90;;;;;;5060550;28;20228;-80
2023/12/16 02:10:55;;;;;;;1.70;0.52;;;34.20;29.40;;;;;;5084149;28;20231;-80
2023/12/16 02:13:31;;;;;;;1.63;0.60;;;34.20;28.00;;;;;;5090433;28;20220;-80
2023/12/16 02:16:02;;;;;;;0.70;0.50;;;34.10;28.10;;;;;;5079449;28;20306;-79
2023/12/16 02:18:33;;;;;;;3.97;0.65;;;34.20;29.20;;;;;;5070747;28;20195;-81
2023/12/16 02:21:04;;;;;;;0.40;0.32;;;34.30;29.30;;;;;;5066341;28;20184;-82
2023/12/16 02:23:39;;;;;;;1.58;0.40;;;34.40;28.70;;;;;;5077238;28;20199;-82
2023/12/16 02:26:10;;;;;;;3.67;0.75;;;34.50;28.80;;;;;;5065759;28;20204;-80
2023/12/16 02:28:42;;;;;;;0.90;0.45;;;34.40;28.50;;;;;;5070906;28;20223;-80
2023/12/16 02:31:13;;;;;;;0.40;0.40;;;34.40;28.40;;;;;;5073236;28;20250;-81
2023/12/16 02:33:45;;;;;;;0.93;0.50;;;34.40;28.80;;;;;;5072722;28;20196;-81
2023/12/16 02:36:16;;;;;;;1.55;0.50;;;34.40;28.50;;;;;;5072096;28;20223;-81
2023/12/16 02:38:49;;;;;;;3.58;0.50;;;34.50;28.40;;;;;;5055394;28;20727;-81
2023/12/16 02:41:21;;;;;;;1.42;0.70;;;34.60;28.70;;;;;;5061577;28;20200;-81
2023/12/16 02:43:52;;;;;;;4.25;1.60;;;34.60;30.20;;;;;;5073741;28;20206;-82
2023/12/16 02:46:22;;;;;;;6.80;2.28;;;34.20;43.70;;;;;;5073518;28;20663;-81
2023/12/16 02:48:53;;;;;;;6.60;2.40;;;34.20;48.10;;;;;;5058078;28;20215;-82
2023/12/16 02:51:24;;;;;;;4.30;2.00;;;33.80;50.70;;;;;;5063763;28;20246;-82
2023/12/16 02:53:57;;;;;;;6.55;2.10;;;33.60;51.20;;;;;;5065046;28;20286;-81
2023/12/16 02:56:28;;;;;;;9.20;2.22;;;33.60;52.40;;;;;;5070774;28;20647;-80
2023/12/16 02:58:58;;;;;;;5.47;1.88;;;33.50;51.60;;;;;;5071576;28;20519;-81
2023/12/16 03:01:29;;;;;;;3.28;1.65;;;33.50;47.70;;;;;;5071857;28;20278;-79
2023/12/16 03:04:00;;;;;;;6.50;1.63;;;33.50;48.00;;;;;;5057768;28;20279;-79
2023/12/16 03:06:31;;;;;;;2.38;0.50;;;33.50;46.70;;;;;;5072455;28;20704;-80
2023/12/16 03:09:04;;;;;;;3.42;1.00;;;33.70;29.70;;;;;;5058160;28;20220;-80
2023/12/16 03:11:35;;;;;;;2.00;0.70;;;33.90;35.10;;;;;;5063510;28;20655;-81
2023/12/16 03:14:06;;;;;;;4.65;1.73;;;34.20;29.60;;;;;;5072317;28;20674;-81
2023/12/16 03:16:36;;;;;;;3.70;1.75;;;34.40;42.00;;;;;;5067971;28;20315;-81
2023/12/16 03:19:07;;;;;;;5.90;2.10;;;34.40;45.70;;;;;;5077576;28;20211;-80
2023/12/16 03:21:38;;;;;;;5.95;1.92;;;34.20;47.30;;;;;;5080805;28;20251;-78
2023/12/16 03:24:12;;;;;;;5.00;1.80;;;34.00;49.00;;;;;;5072946;28;20220;-78
2023/12/16 03:26:43;;;;;;;6.70;1.92;;;33.60;50.40;;;;;;5080239;28;20725;-76
2023/12/16 03:29:14;;;;;;;7.53;2.17;;;33.50;52.20;;;;;;5060506;28;20220;-78
2023/12/16 03:31:44;;;;;;;6.40;2.00;;;33.30;52.40;;;;;;5066545;28;20222;-78
2023/12/16 03:34:15;;;;;;;5.70;1.63;;;33.40;53.00;;;;;;5071140;28;20196;-78
2023/12/16 03:36:49;;;;;;;4.80;1.20;;;33.50;48.50;;;;;;5087884;28;20205;-78
2023/12/16 03:39:22;;;;;;;3.40;1.73;;;33.50;46.90;;;;;;5089513;28;20203;-79
2023/12/16 03:41:53;;;;;;;7.00;2.08;;;33.50;51.00;;;;;;5072419;28;20259;-80
2023/12/16 03:44:24;;;;;;;6.10;1.92;;;33.40;50.80;;;;;;5072169;28;20255;-80
2023/12/16 03:46:54;;;;;;;6.80;1.98;;;33.20;49.40;;;;;;5061879;28;20193;-80
2023/12/16 03:49:25;;;;;;;5.20;2.25;;;33.20;51.60;;;;;;5055706;28;20281;-79
2023/12/16 03:51:56;;;;;;;5.65;2.40;;;33.40;53.60;;;;;;5069830;28;20199;-79
2023/12/16 03:54:29;;;;;;;6.07;2.17;;;33.40;55.00;;;;;;5061217;28;20621;-79
2023/12/16 03:56:59;;;;;;;6.72;2.03;;;33.00;55.00;;;;;;5069196;28;20199;-78
2023/12/16 03:59:31;;;;;;;9.18;2.65;;;33.00;55.40;;;;;;5066676;28;20206;-78
2023/12/16 04:02:02;;;;;;;5.72;2.50;;;32.60;57.10;;;;;;5051357;28;20193;-78
2023/12/16 04:04:32;;;;;;;6.25;2.00;;;32.60;57.70;;;;;;5059184;28;20196;-79
2023/12/16 04:07:03;;;;;;;4.80;1.92;;;32.70;57.20;;;;;;5070407;28;20196;-78
2023/12/16 04:09:36;;;;;;;4.57;1.70;;;32.60;56.70;;;;;;5076924;28;20227;-78
2023/12/16 04:12:07;;;;;;;5.00;1.90;;;32.60;56.30;;;;;;5066249;28;20199;-80
2023/12/16 04:14:40;;;;;;;5.65;2.10;;;32.60;55.30;;;;;;5051312;28;20201;-79
2023/12/16 04:17:11;;;;;;;5.70;1.90;;;32.40;55.60;;;;;;5057906;28;20303;-79
2023/12/16 04:19:50;;;;;;;5.20;1.67;;;32.30;56.40;;;;;;5066147;28;20192;-78
2023/12/16 04:22:22;;;;;;;4.47;2.25;;;32.40;56.60;;;;;;5051162;28;20319;-78
2023/12/16 04:24:57;;;;;;;5.63;2.00;;;32.60;55.40;;;;;;5051291;28;20196;-77
2023/12/16 04:27:29;;;;;;;5.07;1.77;;;32.70;56.20;;;;;;5078511;28;20223;-78
2023/12/16 04:29:59;;;;;;;6.22;1.50;;;32.60;56.40;;;;;;5070636;28;20223;-78
2023/12/16 04:32:30;;;;;;;7.57;1.55;;;32.50;54.10;;;;;;5073477;28;20196;-79
2023/12/16 04:35:01;;;;;;;3.83;1.48;;;32.30;54.10;;;;;;5074140;28;20652;-78
2023/12/16 04:37:32;;;;;;;5.18;1.85;;;32.30;53.60;;;;;;5074373;28;20200;-78
2023/12/16 04:40:05;;;;;;;3.42;1.60;;;32.20;54.80;;;;;;5053363;28;20204;-79
2023/12/16 04:42:36;;;;;;;3.08;1.40;;;32.30;55.10;;;;;;5058779;28;20197;-79
2023/12/16 04:45:08;;;;;;;4.43;1.70;;;32.50;53.50;;;;;;5064808;28;20197;-79
2023/12/16 04:47:40;;;;;;;6.45;1.80;;;32.80;53.90;;;;;;5062655;28;20196;-80
2023/12/16 04:50:11;;;;;;;5.03;1.70;;;32.90;55.50;;;;;;5079461;28;20251;-78
2023/12/16 04:52:42;;;;;;;3.83;1.27;;;33.10;54.50;;;;;;5078774;28;20659;-79
2023/12/16 04:55:15;;;;;;;2.30;1.20;;;33.30;51.70;;;;;;5070160;28;20192;-78
2023/12/16 04:57:46;;;;;;;4.32;1.42;;;33.60;49.90;;;;;;5070251;28;20287;-79
2023/12/16 05:00:18;;;;;;;6.05;1.58;;;33.80;49.20;;;;;;5066777;28;20210;-79
2023/12/16 05:02:49;;;;;;;8.82;1.95;;;33.80;49.70;;;;;;5074606;28;20286;-79
2023/12/16 05:05:19;;;;;;;5.47;1.75;;;33.60;51.40;;;;;;5073474;28;20686;-79
2023/12/16 05:07:50;;;;;;;4.97;1.48;;;33.20;53.60;;;;;;5074277;28;20585;-79
2023/12/16 05:10:23;;;;;;;4.13;1.27;;;32.60;54.20;;;;;;5073155;28;20228;-79
2023/12/16 05:12:54;;;;;;;4.88;1.23;;;32.40;53.90;;;;;;5073666;28;20282;-79
2023/12/16 05:15:24;;;;;;;5.57;1.60;;;32.10;54.70;;;;;;5063272;28;20250;-79
2023/12/16 05:17:55;;;;;;;3.75;1.60;;;32.10;54.70;;;;;;5074044;28;20598;-80
2023/12/16 05:20:26;;;;;;;2.72;1.30;;;32.50;54.40;;;;;;5074549;28;20200;-79
2023/12/16 05:22:57;;;;;;;6.05;1.85;;;32.60;52.60;;;;;;5072405;28;20207;-79
2023/12/16 05:25:30;;;;;;;5.00;1.85;;;32.50;53.60;;;;;;5057696;28;20189;-79
2023/12/16 05:28:01;;;;;;;8.02;2.20;;;32.30;57.70;;;;;;5073755;28;20206;-79
2023/12/16 05:30:32;;;;;;;7.53;2.08;;;32.10;62.00;;;;;;5072781;28;20219;-79
2023/12/16 05:33:02;;;;;;;8.18;2.58;;;32.20;63.30;;;;;;5073696;28;20198;-79
2023/12/16 05:35:33;;;;;;;5.45;2.22;;;32.20;66.10;;;;;;5088678;28;20210;-78
2023/12/16 05:38:04;;;;;;;4.68;2.20;;;32.30;67.50;;;;;;5073454;28;20557;-78
2023/12/16 05:40:37;;;;;;;4.47;2.08;;;32.40;66.70;;;;;;5071925;28;20238;-79
2023/12/16 05:43:07;;;;;;;7.63;2.55;;;32.40;67.50;;;;;;5063425;28;20659;-80
2023/12/16 05:45:38;;;;;;;4.43;2.30;;;32.70;66.40;;;;;;5070126;28;20606;-78
2023/12/16 05:48:12;;;;;;;7.00;2.20;;;32.70;67.60;;;;;;5077509;28;20220;-79
2023/12/16 05:50:43;;;;;;;3.55;1.85;;;32.80;67.30;;;;;;5073654;28;20777;-78
2023/12/16 05:53:14;;;;;;;5.88;2.30;;;32.70;66.90;;;;;;5072527;28;20275;-79
2023/12/16 05:55:47;;;;;;;4.32;1.88;;;32.70;67.60;;;;;;5069898;28;20201;-80
2023/12/16 05:58:23;;;;;;;5.53;2.10;;;32.70;67.60;;;;;;5071149;28;20235;-80
2023/12/16 06:00:54;;;;;;;6.70;2.40;;;32.20;68.80;;;;;;5073292;28;20195;-79
2023/12/16 06:03:26;;;;;;;5.15;2.00;;;32.30;71.40;;;;;;5057690;28;20204;-79
2023/12/16 06:05:57;;;;;;;6.35;2.10;;;33.10;69.70;;;;;;5073079;28;20196;-79
2023/12/16 06:08:27;;;;;;;4.88;1.88;;;33.30;68.20;;;;;;5072101;28;20697;-79
2023/12/16 06:11:00;;;;;;;4.25;1.90;;;33.40;66.30;;;;;;5066504;28;20230;-79
2023/12/16 06:13:31;;;;;;;6.28;2.20;;;33.10;66.60;;;;;;5069281;28;20563;-79
2023/12/16 06:16:01;;;;;;;4.22;1.67;;;32.90;67.00;;;;;;5074553;28;20287;-79
2023/12/16 06:18:32;;;;;;;3.40;1.77;;;32.80;67.00;;;;;;5076083;28;20202;-80
2023/12/16 06:21:03;;;;;;;4.47;2.05;;;32.70;67.50;;;;;;5074677;28;20251;-78
2023/12/16 06:23:34;;;;;;;7.22;1.90;;;33.00;66.80;;;;;;5074893;28;20294;-77
2023/12/16 06:26:08;;;;;;;5.13;2.40;;;33.30;66.70;;;;;;5071414;28;20288;-78
2023/12/16 06:28:38;;;;;;;3.75;1.90;;;33.10;67.10;;;;;;5079462;28;20212;-78
2023/12/16 06:31:16;;;;;;;3.65;1.90;;;33.30;65.90;;;;;;5082358;28;20211;-78
2023/12/16 06:33:47;;;;;;;6.35;2.03;;;33.40;63.90;;;;;;5072848;28;20277;-79
2023/12/16 06:36:18;;;;;;;6.53;2.40;;;33.50;66.30;;;;;;5072757;28;20286;-81
2023/12/16 06:38:48;;;;;;;8.18;2.20;;;33.60;66.60;;;;;;5061905;28;20216;-80
2023/12/16 06:41:21;;;;;;;3.92;2.10;;;34.10;65.10;;;;;;5064124;28;20192;-80
2023/12/16 06:43:52;;;;;;;3.55;1.80;;;34.60;65.60;;;;;;5068397;28;20219;-80
2023/12/16 06:46:23;;;;;;;5.22;1.90;;;35.00;61.80;;;;;;5070507;28;20199;-80
2023/12/16 06:48:54;;;;;;;5.60;1.90;;;34.60;60.60;;;;;;5073252;28;20654;-80
2023/12/16 06:51:25;;;;;;;4.85;1.67;;;34.60;59.50;;;;;;5072744;28;20227;-82
2023/12/16 06:53:56;;;;;;;4.97;1.75;;;35.00;57.70;;;;;;5073690;28;20184;-80
2023/12/16 06:56:28;;;;;;;3.75;1.67;;;35.90;57.60;;;;;;5078913;28;20216;-80
2023/12/16 06:58:59;;;;;;;4.28;2.00;;;36.50;56.40;;;;;;5083928;28;20309;-78
2023/12/16 07:01:30;;;;;;;4.72;1.88;;;36.00;56.50;;;;;;5080330;28;20311;-79
2023/12/16 07:04:01;;;;;;;4.68;2.00;;;35.00;59.10;;;;;;5061785;28;20201;-81
2023/12/16 07:06:31;;;;;;;8.40;2.22;;;35.30;60.10;;;;;;5074192;28;20214;-79
2023/12/16 07:09:02;;;;;;;5.80;2.38;;;35.70;60.40;;;;;;5090924;28;20228;-80
2023/12/16 07:11:36;;;;;;;4.82;2.13;;;36.00;58.50;;;;;;5074858;28;20302;-81
2023/12/16 07:14:07;;;;;;;5.55;1.90;;;36.30;56.70;;;;;;5075118;28;20562;-80
2023/12/16 07:16:38;;;;;;;8.07;2.20;;;36.20;57.20;;;;;;5068804;28;20253;-79
2023/12/16 07:19:08;;;;;;;4.55;2.00;;;35.90;58.90;;;;;;5075657;28;20282;-81
2023/12/16 07:21:43;;;;;;;6.63;2.17;;;36.30;58.70;;;;;;5071127;28;20218;-80
2023/12/16 07:24:14;;;;;;;4.30;2.00;;;36.40;57.70;;;;;;5054706;28;20196;-80
2023/12/16 07:26:47;;;;;;;6.03;2.03;;;36.40;55.70;;;;;;5066611;28;20200;-80
2023/12/16 07:29:18;;;;;;;3.22;1.60;;;37.00;55.30;;;;;;5072253;28;20202;-80
2023/12/16 07:31:49;;;;;;;4.60;1.60;;;37.00;53.90;;;;;;5072846;28;20224;-79
2023/12/16 07:34:20;;;;;;;3.08;1.75;;;37.20;53.00;;;;;;5075459;28;20206;-79
2023/12/16 07:36:51;;;;;;;4.15;2.10;;;37.30;53.20;;;;;;5059368;28;20287;-80
2023/12/16 07:39:22;;;;;;;8.52;2.00;;;36.90;53.70;;;;;;5052276;28;20356;-80
2023/12/16 07:41:55;;;;;;;6.38;2.25;;;36.80;54.30;;;;;;5061454;28;20192;-80
2023/12/16 07:44:27;;;;;;;6.18;2.53;;;36.70;55.40;;;;;;5071780;28;20214;-80
2023/12/16 07:46:57;;;;;;;4.95;1.65;;;36.50;55.50;;;;;;5071156;28;20295;-79
2023/12/16 07:49:28;;;;;;;3.85;1.95;;;35.70;56.40;;;;;;5072012;28;20194;-80
2023/12/16 07:52:00;;;;;;;5.88;2.22;;;35.00;58.00;;;;;;5075466;28;20293;-81
2023/12/16 07:54:31;;;;;;;4.43;2.20;;;34.40;58.60;;;;;;5052204;28;20201;-78
2023/12/16 07:57:04;;;;;;;5.40;2.17;;;33.60;60.00;;;;;;5060880;28;20279;-79
2023/12/16 07:59:35;;;;;;;5.60;2.08;;;33.00;62.70;;;;;;5070606;28;20749;-79
2023/12/16 08:02:08;;;;;;;4.60;2.15;;;32.50;64.90;;;;;;5066505;28;20662;-79
2023/12/16 08:04:40;;;;;;;4.97;2.38;;;32.20;66.80;;;;;;5053374;28;20208;-79
2023/12/16 08:07:11;;;;;;;5.05;2.30;;;31.70;68.30;;;;;;5078369;28;20204;-80
2023/12/16 08:09:41;;;;;;;6.10;2.47;;;31.50;68.30;;;;;;5089429;28;20206;-79
2023/12/16 08:12:15;;;;;;;4.05;2.30;;;31.20;69.20;;;;;;5079098;28;20234;-80
2023/12/16 08:14:45;;;;;;;4.22;2.05;;;31.10;69.30;;;;;;5058235;28;20722;-79
2023/12/16 08:17:16;;;;;;;4.35;2.28;;;31.00;71.10;;;;;;5051553;28;20232;-79
2023/12/16 08:19:47;;;;;;;6.40;2.30;;;31.00;72.20;;;;;;5051017;28;20200;-79
2023/12/16 08:22:18;;;;;;;4.40;2.35;;;30.90;73.10;;;;;;5051868;28;20287;-79
2023/12/16 08:24:49;;;;;;;4.07;1.95;;;30.80;73.50;;;;;;5061007;28;20243;-79
2023/12/16 08:27:21;;;;;;;6.13;2.40;;;30.50;74.60;;;;;;5069656;28;20204;-81
2023/12/16 08:29:52;;;;;;;5.93;2.25;;;30.30;75.80;;;;;;5059781;28;20651;-79
2023/12/16 08:32:23;;;;;;;5.35;2.40;;;30.20;77.10;;;;;;5050740;28;20232;-79
2023/12/16 08:34:54;;;;;;;4.78;2.17;;;30.10;79.50;;;;;;5051362;28;20618;-80
2023/12/16 08:37:25;;;;;;;5.63;2.30;;;29.90;81.50;;;;;;5068588;28;20199;-80
2023/12/16 08:39:56;;;;;;;5.78;2.72;;;29.90;83.00;;;;;;5059050;28;20212;-80
2023/12/16 08:42:29;;;;;;;6.40;3.00;;;29.70;85.30;;;;;;5065063;28;20202;-81
2023/12/16 08:45:00;;;;;;;7.50;2.95;;;29.80;87.20;;;;;;5051716;28;20204;-80
2023/12/16 08:47:31;;;;;;;5.70;2.78;;;29.60;91.70;;;;;;5053959;28;20231;-79
2023/12/16 08:50:02;;;;;;;5.25;2.78;;;29.40;95.70;;;;;;5062155;28;20206;-80
2023/12/16 08:52:37;;;;;;;5.40;2.47;;;29.20;99.60;;;;;;5055634;28;20252;-79
2023/12/16 08:55:08;;;;;;;5.68;2.15;;;28.90;99.90;;;;;;5058312;28;20290;-79
2023/12/16 08:57:59;;;;;;;6.85;2.35;;;28.70;99.90;;;;;;5068767;28;20200;-80
2023/12/16 09:00:30;;;;;;;9.20;2.58;;;28.50;99.90;;;;;;5054133;28;20643;-81
2023/12/16 09:03:01;;;;;;;7.00;2.33;;;28.40;99.90;;;;;;5071575;28;20196;-80
2023/12/16 09:05:32;;;;;;;9.05;2.60;;;28.30;99.90;;;;;;5069515;28;20290;-80
2023/12/16 09:08:03;;;;;;;12.30;2.70;;;28.20;99.90;;;;;;5071701;28;20704;-80
2023/12/16 09:10:34;;;;;;;6.40;2.20;;;28.10;99.90;;;;;;5069645;28;20278;-80
2023/12/16 09:13:06;;;;;;;7.63;2.45;;;28.00;99.90;;;;;;5069227;28;20659;-80
2023/12/16 09:15:37;;;;;;;7.70;2.70;;;27.90;99.90;;;;;;5077577;28;20255;-80
2023/12/16 09:18:08;;;;;;;8.40;2.40;;;27.70;99.90;;;;;;5087341;28;20200;-80
2023/12/16 09:20:40;;;;;;;7.50;2.40;;;27.60;99.90;;;;;;5074572;28;20200;-80
2023/12/16 09:23:11;;;;;;;9.82;2.25;;;27.50;99.90;;;;;;5091388;28;20223;-82
2023/12/16 09:25:41;;;;;;;8.40;2.38;;;27.50;99.90;;;;;;5067257;28;20188;-77
2023/12/16 09:28:15;;;;;;;6.90;2.22;;;27.40;99.90;;;;;;5072235;28;20189;-80
2023/12/16 09:30:46;;;;;;;11.05;2.50;;;27.40;99.90;;;;;;5054412;28;20685;-79
2023/12/16 09:33:17;;;;;;;9.55;2.50;;;27.40;99.90;;;;;;5063102;28;20192;-81
2023/12/16 09:35:48;;;;;;;7.43;2.55;;;27.30;99.90;;;;;;5061483;28;20192;-81
2023/12/16 09:38:19;;;;;;;10.57;2.55;;;27.20;99.90;;;;;;5052805;28;20200;-81
2023/12/16 09:40:50;;;;;;;7.88;2.30;;;27.20;99.90;;;;;;5065454;28;20204;-80
2023/12/16 09:43:24;;;;;;;10.27;2.60;;;27.10;99.90;;;;;;5063683;28;20198;-80
2023/12/16 09:45:55;;;;;;;9.50;2.78;;;26.90;99.90;;;;;;5069454;28;20566;-80
2023/12/16 09:48:27;;;;;;;9.60;3.20;;;26.90;99.90;;;;;;5067901;28;20279;-80
2023/12/16 09:50:58;;;;;;;8.15;2.75;;;26.90;99.90;;;;;;5072261;28;20760;-79
2023/12/16 09:53:29;;;;;;;9.65;2.47;;;26.90;99.90;;;;;;5063998;28;20212;-80
2023/12/16 09:56:01;;;;;;;7.65;2.42;;;26.80;99.90;;;;;;5060123;28;20193;-82
2023/12/16 09:58:36;;;;;;;7.95;2.30;;;26.80;99.90;;;;;;5066272;28;20199;-80
2023/12/16 10:01:10;;;;;;;7.85;2.08;;;26.70;99.90;;;;;;5056603;28;20196;-80
2023/12/16 10:03:41;;;;;;;8.98;2.28;;;26.60;99.90;;;;;;5053773;28;20197;-82
2023/12/16 10:06:12;;;;;;;11.05;2.50;;;26.70;99.90;;;;;;5059989;28;20200;-81
2023/12/16 10:08:44;;;;;;;15.85;2.75;;;26.60;99.90;;;;;;5073276;28;20188;-81
2023/12/16 10:11:15;;;;;;;10.52;2.40;;;26.50;99.90;;;;;;5069484;28;20578;-81
2023/12/16 10:14:03;;;;;;;10.68;2.53;;;26.40;99.90;;;;;;5055535;28;20204;-81
2023/12/16 10:16:34;;;;;;;10.57;2.70;;;26.40;99.90;;;;;;5053726;28;20232;-81
2023/12/16 10:19:05;;;;;;;9.30;2.17;;;26.40;99.90;;;;;;5054929;28;20197;-81
2023/12/16 10:21:36;;;;;;;10.55;2.30;;;26.30;99.90;;;;;;5064641;28;20217;-80
2023/12/16 10:24:06;;;;;;;10.55;2.75;;;26.20;99.90;;;;;;5083920;28;20210;-81
2023/12/16 10:26:43;;;;;;;9.27;2.58;;;26.30;99.90;;;;;;5078286;28;20654;-80
2023/12/16 10:29:15;;;;;;;7.85;2.20;;;26.30;99.90;;;;;;5062846;28;20196;-81
2023/12/16 10:31:46;;;;;;;12.98;2.83;;;26.20;99.90;;;;;;5065171;28;20232;-82
2023/12/16 10:34:17;;;;;;;9.95;2.40;;;26.30;99.90;;;;;;5078860;28;20198;-81
2023/12/16 10:36:48;;;;;;;12.52;2.70;;;26.10;99.90;;;;;;5079988;28;20198;-80
2023/12/16 10:39:19;;;;;;;8.38;2.50;;;26.10;99.90;;;;;;5088686;28;20223;-80
2023/12/16 10:41:50;;;;;;;8.95;2.30;;;26.10;99.90;;;;;;5078178;28;20204;-81
2023/12/16 10:44:22;;;;;;;8.77;2.30;;;26.10;99.90;;;;;;5070477;28;20187;-82
2023/12/16 10:46:56;;;;;;;8.38;2.13;;;26.10;99.90;;;;;;5070560;28;20199;-82
2023/12/16 10:49:31;;;;;;;11.20;2.22;;;26.00;99.90;;;;;;5063631;28;20207;-82
2023/12/16 10:52:07;;;;;;;11.32;2.50;;;26.00;99.90;;;;;;5065102;28;20310;-82
2023/12/16 10:54:44;;;;;;;12.82;2.70;;;26.00;99.90;;;;;;5072238;28;20253;-82
2023/12/16 10:57:29;;;;;;;11.93;2.70;;;26.00;99.90;;;;;;5069851;28;20210;-84
2023/12/16 11:00:07;;;;;;;9.05;2.25;;;25.90;99.90;;;;;;5071617;28;20192;-82
2023/12/16 11:02:45;;;;;;;11.05;2.22;;;25.90;99.90;;;;;;5072859;28;20207;-80
2023/12/16 11:05:22;;;;;;;8.23;2.13;;;25.90;99.90;;;;;;5074522;28;20184;-81
2023/12/16 11:07:53;;;;;;;9.55;2.30;;;25.90;99.90;;;;;;5080919;28;20231;-80
2023/12/16 11:10:25;;;;;;;9.40;2.45;;;26.00;99.90;;;;;;5067723;28;20673;-81
2023/12/16 11:12:56;;;;;;;10.63;2.53;;;26.00;99.90;;;;;;5066309;28;20773;-80
2023/12/16 11:15:30;;;;;;;10.20;2.60;;;26.00;99.90;;;;;;5073415;28;20207;-80
2023/12/16 11:18:05;;;;;;;10.93;2.55;;;26.00;99.90;;;;;;5072189;28;20697;-80
2023/12/16 11:20:42;;;;;;;8.57;2.25;;;26.00;99.90;;;;;;5055352;28;20275;-81
2023/12/16 11:23:15;;;;;;;10.40;2.25;;;26.00;99.90;;;;;;5068871;28;20709;-81
2023/12/16 11:25:45;;;;;;;9.32;2.20;;;25.90;99.90;;;;;;5059920;28;20671;-82
2023/12/16 11:28:18;;;;;;;11.20;2.50;;;25.90;99.90;;;;;;5056596;28;20196;-82
2023/12/16 11:30:55;;;;;;;8.88;2.30;;;26.00;99.90;;;;;;5068323;28;20212;-82
2023/12/16 11:33:26;;;;;;;9.90;2.53;;;25.90;99.90;;;;;;5075294;28;20232;-82
2023/12/16 11:35:57;;;;;;;9.07;2.13;;;25.90;99.90;;;;;;5069601;28;20282;-83
2023/12/16 11:38:47;;;;;;;8.18;2.03;;;25.90;99.90;;;;;;5070547;28;20212;-83
2023/12/16 11:41:44;;;;;;;9.40;2.20;;;25.90;99.90;;;;;;5070409;28;20287;-83
2023/12/16 11:44:15;;;;;;;9.48;2.40;;;25.80;99.90;;;;;;5026723;28;20727;-83
2023/12/16 11:46:48;;;;;;;7.28;2.00;;;25.70;99.90;;;;;;5081480;28;20224;-83
2023/12/16 11:49:19;;;;;;;8.40;2.08;;;25.70;99.90;;;;;;5072864;28;20284;-83
2023/12/16 11:51:49;;;;;;;12.60;2.13;;;25.70;99.90;;;;;;5082575;28;20283;-83
2023/12/16 11:54:20;;;;;;;6.75;1.70;;;25.60;99.90;;;;;;5082228;28;20266;-82
2023/12/16 11:56:54;;;;;;;8.57;2.40;;;25.60;99.90;;;;;;5076924;28;20282;-83
2023/12/16 11:59:24;;;;;;;7.57;2.03;;;25.60;99.90;;;;;;5052794;28;20500;-82
2023/12/16 12:01:57;;;;;;;6.30;1.77;;;25.70;99.90;;;;;;5051770;28;20336;-83
2023/12/16 12:04:28;;;;;;;7.97;1.80;;;25.70;99.90;;;;;;5063837;28;20544;-83
2023/12/16 12:06:59;;;;;;;8.25;1.70;;;25.60;99.90;;;;;;5060792;28;20211;-83
2023/12/16 12:09:30;;;;;;;6.15;1.83;;;25.60;99.90;;;;;;5069300;28;20624;-84
2023/12/16 12:12:03;;;;;;;5.72;1.73;;;25.70;99.90;;;;;;5069519;28;20258;-82
2023/12/16 12:14:34;;;;;;;6.57;1.92;;;25.60;99.90;;;;;;5058506;28;20214;-82
2023/12/16 12:17:07;;;;;;;7.68;1.95;;;25.60;99.90;;;;;;5051579;28;20235;-82
2023/12/16 12:19:38;;;;;;;5.82;1.80;;;25.70;99.90;;;;;;5065926;28;20199;-82
2023/12/16 12:22:09;;;;;;;6.78;1.90;;;25.70;99.90;;;;;;5063916;28;20223;-82
2023/12/16 12:24:40;;;;;;;6.82;1.88;;;25.70;99.90;;;;;;5075163;28;20574;-81
2023/12/16 12:27:11;;;;;;;8.57;1.80;;;25.60;99.90;;;;;;5064274;28;20200;-82
2023/12/16 12:29:59;;;;;;;6.20;1.77;;;25.60;99.90;;;;;;5051876;28;20679;-83
2023/12/16 12:32:32;;;;;;;7.40;2.17;;;25.60;99.90;;;;;;5051050;28;20225;-83
2023/12/16 12:35:05;;;;;;;8.00;1.80;;;25.50;99.90;;;;;;5058508;28;20204;-83
2023/12/16 12:37:39;;;;;;;8.43;1.70;;;25.40;99.90;;;;;;5062166;28;20279;-82
2023/12/16 12:40:19;;;;;;;7.25;1.85;;;25.40;99.90;;;;;;5070920;28;20213;-83
2023/12/16 12:42:50;;;;;;;8.27;1.80;;;25.40;99.90;;;;;;5061992;28;20195;-83
2023/12/16 12:45:31;;;;;;;5.07;1.45;;;25.30;99.90;;;;;;5069584;28;20286;-82
2023/12/16 12:48:15;;;;;;;8.95;1.80;;;25.30;99.90;;;;;;5077189;28;20195;-82
2023/12/16 12:50:47;;;;;;;4.80;1.80;;;25.30;99.90;;;;;;5072332;28;20207;-83
2023/12/16 12:53:21;;;;;;;8.05;1.70;;;25.30;99.90;;;;;;5070487;28;20266;-82
2023/12/16 12:55:52;;;;;;;6.40;1.73;;;25.30;99.90;;;;;;5071480;28;20211;-82
2023/12/16 12:58:24;;;;;;;8.57;1.60;;;25.40;99.90;;;;;;5066841;28;20216;-81
2023/12/16 13:00:56;;;;;;;7.35;1.90;;;25.40;99.90;;;;;;5085505;28;20222;-83
2023/12/16 13:03:29;;;;;;;6.53;1.75;;;25.40;99.90;;;;;;5072920;28;20255;-83
2023/12/16 13:06:00;;;;;;;5.60;1.60;;;25.30;99.90;;;;;;5076707;28;20312;-84
2023/12/16 13:08:31;;;;;;;6.97;1.80;;;25.20;99.90;;;;;;5066531;28;20188;-83
2023/12/16 13:11:03;;;;;;;8.48;1.70;;;25.20;99.90;;;;;;5051895;28;20283;-83